createdAt,value
2022-11-18T00:01:13.613Z,4.00
2022-11-18T00:03:41.175Z,4.10
2022-11-18T00:06:10.966Z,4.10
2022-11-18T00:08:44.482Z,4.30
2022-11-18T00:11:13.361Z,4.40
2022-11-18T00:13:59.174Z,4.60
2022-11-18T00:16:26.206Z,4.60
2022-11-18T00:18:53.333Z,4.70
2022-11-18T00:21:20.303Z,4.90
2022-11-18T00:23:48.618Z,5.00
2022-11-18T00:26:15.794Z,5.00
2022-11-18T00:28:42.802Z,5.10
2022-11-18T00:31:11.117Z,5.30
2022-11-18T00:33:38.428Z,5.40
2022-11-18T00:36:06.219Z,5.40
2022-11-18T00:38:33.266Z,5.40
2022-11-18T00:41:04.783Z,5.40
2022-11-18T00:43:32.090Z,5.30
2022-11-18T00:45:59.056Z,5.30
2022-11-18T00:48:26.201Z,5.30
2022-11-18T00:50:54.235Z,5.20
2022-11-18T00:53:21.919Z,5.20
2022-11-18T00:55:49.202Z,5.20
2022-11-18T00:58:16.407Z,5.10
2022-11-18T01:00:44.167Z,5.00
2022-11-18T01:03:12.188Z,4.90
2022-11-18T01:05:39.628Z,5.00
2022-11-18T01:08:07.477Z,5.20
2022-11-18T01:10:34.525Z,5.20
2022-11-18T01:13:19.640Z,5.40
2022-11-18T01:15:46.550Z,5.50
2022-11-18T01:18:13.730Z,5.40
2022-11-18T01:20:40.668Z,5.50
2022-11-18T01:23:07.513Z,5.60
2022-11-18T01:25:35.457Z,5.60
2022-11-18T01:28:03.513Z,5.70
2022-11-18T01:30:32.769Z,5.70
2022-11-18T01:32:59.740Z,5.80
2022-11-18T01:35:26.905Z,5.80
2022-11-18T01:37:53.838Z,5.90
2022-11-18T01:40:20.690Z,6.00
2022-11-18T01:42:47.655Z,6.00
2022-11-18T01:45:17.632Z,6.00
2022-11-18T01:47:47.899Z,5.90
2022-11-18T01:50:15.765Z,5.90
2022-11-18T01:52:45.242Z,5.80
2022-11-18T01:55:22.040Z,5.80
2022-11-18T01:57:49.915Z,5.70
2022-11-18T02:00:17.023Z,5.70
2022-11-18T02:02:44.132Z,5.70
2022-11-18T02:05:12.069Z,5.60
2022-11-18T02:07:41.223Z,5.50
2022-11-18T02:10:09.851Z,5.50
2022-11-18T02:12:37.611Z,5.30
2022-11-18T02:15:04.946Z,5.10
2022-11-18T02:17:50.247Z,5.00
2022-11-18T02:20:20.355Z,4.90
2022-11-18T02:23:07.456Z,4.80
2022-11-18T02:25:40.401Z,4.80
2022-11-18T02:28:19.591Z,4.90
2022-11-18T02:30:50.779Z,5.00
2022-11-18T02:33:23.176Z,5.00
2022-11-18T02:35:56.598Z,5.10
2022-11-18T02:38:27.034Z,4.90
2022-11-18T02:40:57.164Z,4.80
2022-11-18T02:43:27.212Z,4.70
2022-11-18T02:45:56.377Z,4.80
2022-11-18T02:48:25.568Z,5.00
2022-11-18T02:50:53.081Z,4.90
2022-11-18T02:53:20.769Z,4.80
2022-11-18T02:55:48.550Z,4.80
2022-11-18T02:58:17.766Z,4.70
2022-11-18T03:00:44.796Z,4.70
2022-11-18T03:03:27.264Z,4.70
2022-11-18T03:06:03.255Z,4.80
2022-11-18T03:08:35.300Z,4.70
2022-11-18T03:11:11.484Z,4.70
2022-11-18T03:13:49.494Z,4.50
2022-11-18T03:16:23.776Z,4.30
2022-11-18T03:19:14.426Z,4.20
2022-11-18T03:21:43.732Z,4.20
2022-11-18T03:24:20.172Z,4.30
2022-11-18T03:26:52.793Z,4.30
2022-11-18T03:29:20.332Z,4.40
2022-11-18T03:31:56.035Z,4.60
2022-11-18T03:34:28.642Z,4.70
2022-11-18T03:37:00.634Z,4.90
2022-11-18T03:39:30.006Z,4.90
2022-11-18T03:42:02.997Z,5.10
2022-11-18T03:44:32.968Z,5.10
2022-11-18T03:47:02.625Z,5.00
2022-11-18T03:49:31.479Z,4.90
2022-11-18T03:52:02.373Z,5.00
2022-11-18T03:54:30.928Z,5.10
2022-11-18T03:56:59.881Z,5.20
2022-11-18T03:59:29.804Z,5.10
2022-11-18T04:02:04.213Z,5.10
2022-11-18T04:04:31.204Z,4.80
2022-11-18T04:07:08.959Z,4.80
2022-11-18T04:09:40.767Z,4.90
2022-11-18T04:12:11.298Z,4.90
2022-11-18T04:14:39.400Z,4.80
2022-11-18T04:17:11.078Z,4.70
2022-11-18T04:19:37.988Z,4.70
2022-11-18T04:22:04.914Z,4.60
2022-11-18T04:24:31.829Z,4.60
2022-11-18T04:26:58.804Z,4.60
2022-11-18T04:29:26.058Z,4.50
2022-11-18T04:31:53.030Z,4.40
2022-11-18T04:34:20.055Z,4.10
2022-11-18T04:36:47.036Z,3.90
2022-11-18T04:39:14.440Z,3.80
2022-11-18T04:41:56.683Z,3.80
2022-11-18T04:44:25.051Z,3.90
2022-11-18T04:46:52.428Z,3.90
2022-11-18T04:49:19.619Z,4.00
2022-11-18T04:51:47.078Z,4.20
2022-11-18T04:54:14.592Z,4.30
2022-11-18T04:56:48.487Z,4.50
2022-11-18T04:59:17.269Z,4.60
2022-11-18T05:01:44.550Z,4.60
2022-11-18T05:04:16.053Z,4.50
2022-11-18T05:06:43.408Z,4.40
2022-11-18T05:09:10.791Z,4.20
2022-11-18T05:11:56.417Z,4.30
2022-11-18T05:14:25.679Z,4.50
2022-11-18T05:16:53.095Z,4.60
2022-11-18T05:19:20.377Z,4.40
2022-11-18T05:21:47.558Z,4.60
2022-11-18T05:24:14.645Z,4.40
2022-11-18T05:26:41.642Z,4.50
2022-11-18T05:29:08.637Z,4.50
2022-11-18T05:31:35.529Z,4.30
2022-11-18T05:34:02.459Z,4.40
2022-11-18T05:36:29.419Z,4.70
2022-11-18T05:38:58.817Z,4.90
2022-11-18T05:41:48.927Z,5.10
2022-11-18T05:44:15.993Z,5.00
2022-11-18T05:46:43.000Z,5.00
2022-11-18T05:49:09.963Z,4.80
2022-11-18T05:51:36.908Z,4.80
2022-11-18T05:54:08.814Z,4.60
2022-11-18T05:56:39.991Z,4.40
2022-11-18T05:59:07.536Z,4.60
2022-11-18T06:01:37.654Z,4.80
2022-11-18T06:04:08.641Z,4.50
2022-11-18T06:06:35.657Z,4.50
2022-11-18T06:09:06.454Z,4.70
2022-11-18T06:11:36.887Z,4.80
2022-11-18T06:14:10.374Z,5.00
2022-11-18T06:16:40.971Z,5.20
2022-11-18T06:19:08.262Z,5.40
2022-11-18T06:21:35.249Z,5.40
2022-11-18T06:24:02.879Z,5.50
2022-11-18T06:26:29.955Z,5.60
2022-11-18T06:28:56.927Z,5.70
2022-11-18T06:31:23.776Z,5.70
2022-11-18T06:33:50.820Z,5.70
2022-11-18T06:36:17.674Z,5.60
2022-11-18T06:38:44.565Z,5.50
2022-11-18T06:41:11.486Z,5.60
2022-11-18T06:43:44.388Z,5.60
2022-11-18T06:46:34.034Z,5.70
2022-11-18T06:49:02.104Z,5.70
2022-11-18T06:51:29.372Z,5.80
2022-11-18T06:53:56.415Z,5.70
2022-11-18T06:56:23.587Z,5.70
2022-11-18T06:58:54.995Z,5.70
2022-11-18T07:01:31.478Z,5.70
2022-11-18T07:03:59.264Z,5.70
2022-11-18T07:06:27.634Z,5.80
2022-11-18T07:08:54.707Z,5.90
2022-11-18T07:11:23.179Z,5.90
2022-11-18T07:13:50.467Z,6.00
2022-11-18T07:16:19.076Z,6.20
2022-11-18T07:18:46.969Z,6.10
2022-11-18T07:21:15.465Z,6.00
2022-11-18T07:23:42.435Z,6.00
2022-11-18T07:26:09.671Z,5.90
2022-11-18T07:28:36.639Z,5.90
2022-11-18T07:31:04.758Z,5.80
2022-11-18T07:33:32.050Z,5.80
2022-11-18T07:36:06.345Z,5.70
2022-11-18T07:38:33.573Z,5.60
2022-11-18T07:41:16.942Z,5.40
2022-11-18T07:43:44.271Z,5.40
2022-11-18T07:46:12.370Z,5.40
2022-11-18T07:48:40.043Z,5.30
2022-11-18T07:51:07.179Z,5.30
2022-11-18T07:53:34.635Z,5.30
2022-11-18T07:56:01.755Z,5.40
2022-11-18T07:58:28.842Z,5.30
2022-11-18T08:00:55.819Z,5.00
2022-11-18T08:03:29.198Z,5.00
2022-11-18T08:05:59.898Z,5.00
2022-11-18T08:08:26.885Z,5.20
2022-11-18T08:10:57.450Z,5.10
2022-11-18T08:13:24.984Z,5.10
2022-11-18T08:15:52.474Z,5.20
2022-11-18T08:18:19.765Z,5.20
2022-11-18T08:20:47.359Z,5.20
2022-11-18T08:23:15.155Z,5.20
2022-11-18T08:25:42.704Z,5.20
2022-11-18T08:28:10.226Z,5.20
2022-11-18T08:30:37.476Z,5.20
2022-11-18T08:33:04.836Z,5.30
2022-11-18T08:35:32.322Z,5.30
2022-11-18T08:37:59.733Z,5.40
2022-11-18T08:40:26.971Z,5.20
2022-11-18T08:42:54.025Z,5.30
2022-11-18T08:45:20.900Z,5.30
2022-11-18T08:47:47.777Z,5.20
2022-11-18T08:50:14.693Z,5.20
2022-11-18T08:52:41.794Z,5.10
2022-11-18T08:55:08.914Z,5.20
2022-11-18T08:57:35.882Z,5.30
2022-11-18T09:00:03.801Z,5.30
2022-11-18T09:02:30.734Z,5.40
2022-11-18T09:04:57.638Z,5.50
2022-11-18T09:07:24.493Z,5.60
2022-11-18T09:09:51.895Z,5.60
2022-11-18T09:12:18.853Z,5.80
2022-11-18T09:17:32.867Z,6.00
2022-11-18T09:19:59.822Z,6.00
2022-11-18T09:22:26.817Z,5.90
2022-11-18T09:24:53.858Z,6.00
2022-11-18T09:27:20.749Z,6.10
2022-11-18T09:29:47.640Z,6.30
2022-11-18T09:32:14.899Z,6.20
2022-11-18T09:34:41.781Z,6.40
2022-11-18T09:37:08.694Z,6.60
2022-11-18T09:39:38.436Z,6.80
2022-11-18T09:42:08.424Z,6.80
2022-11-18T09:44:54.202Z,6.50
2022-11-18T09:47:29.197Z,6.40
2022-11-18T09:49:58.485Z,6.30
2022-11-18T09:52:36.014Z,6.40
2022-11-18T09:55:12.592Z,6.60
2022-11-18T09:57:40.692Z,6.80
2022-11-18T10:00:15.009Z,7.00
2022-11-18T10:02:42.842Z,7.00
2022-11-18T10:05:19.332Z,6.90
2022-11-18T10:08:08.132Z,6.70
2022-11-18T10:10:34.992Z,6.70
2022-11-18T10:13:13.236Z,6.60
2022-11-18T10:15:51.432Z,6.40
2022-11-18T10:18:59.864Z,6.20
2022-11-18T10:21:46.522Z,6.30
2022-11-18T10:24:16.682Z,6.30
2022-11-18T10:26:43.910Z,6.50
2022-11-18T10:29:11.191Z,6.60
2022-11-18T10:31:55.379Z,6.80
2022-11-18T10:34:25.143Z,6.80
2022-11-18T10:37:04.386Z,6.50
2022-11-18T10:39:31.736Z,6.50
2022-11-18T10:42:04.913Z,6.40
2022-11-18T10:44:39.872Z,6.20
2022-11-18T10:47:22.884Z,6.20
2022-11-18T10:49:50.203Z,6.00
2022-11-18T10:52:17.171Z,6.10
2022-11-18T10:54:44.703Z,6.00
2022-11-18T10:57:11.620Z,6.10
2022-11-18T10:59:47.234Z,6.30
2022-11-18T11:02:34.403Z,6.40
2022-11-18T11:05:15.446Z,6.40
2022-11-18T11:07:42.639Z,6.20
2022-11-18T11:10:15.821Z,6.00
2022-11-18T11:12:47.355Z,6.00
2022-11-18T11:15:19.447Z,5.90
2022-11-18T11:18:10.581Z,5.90
2022-11-18T11:20:37.690Z,5.90
2022-11-18T11:23:11.704Z,5.80
2022-11-18T11:28:30.929Z,5.70
2022-11-18T11:30:57.813Z,5.60
2022-11-18T11:33:40.189Z,5.40
2022-11-18T11:36:27.306Z,5.40
2022-11-18T11:39:12.753Z,5.10
2022-11-18T11:41:44.064Z,5.00
2022-11-18T11:44:23.351Z,5.10
2022-11-18T11:47:16.558Z,5.20
2022-11-18T11:49:52.946Z,5.40
2022-11-18T11:52:34.506Z,5.20
2022-11-18T11:55:10.464Z,5.10
2022-11-18T11:57:43.548Z,4.90
2022-11-18T12:00:13.677Z,4.80
2022-11-18T12:02:59.493Z,4.60
2022-11-18T12:05:36.291Z,4.50
2022-11-18T12:08:06.242Z,4.50
2022-11-18T12:10:37.150Z,4.40
2022-11-18T12:13:10.239Z,4.30
2022-11-18T12:15:43.848Z,4.20
2022-11-18T12:18:23.955Z,4.00
2022-11-18T12:20:52.501Z,3.80
2022-11-18T12:23:27.314Z,3.60
2022-11-18T12:25:54.237Z,3.60
2022-11-18T12:28:33.360Z,3.50
2022-11-18T12:31:18.753Z,3.70
2022-11-18T12:33:47.398Z,3.70
2022-11-18T12:36:34.177Z,3.70
2022-11-18T12:39:20.048Z,3.70
2022-11-18T12:42:05.688Z,3.80
2022-11-18T12:44:32.926Z,3.60
2022-11-18T12:47:00.661Z,3.60
2022-11-18T12:49:27.533Z,3.40
2022-11-18T12:51:55.490Z,3.40
2022-11-18T12:54:27.135Z,3.40
2022-11-18T12:56:54.762Z,3.40
2022-11-18T12:59:32.680Z,3.20
2022-11-18T13:02:26.151Z,3.30
2022-11-18T13:05:03.054Z,3.40
2022-11-18T13:07:50.110Z,3.50
2022-11-18T13:10:22.902Z,3.70
2022-11-18T13:12:49.847Z,3.60
2022-11-18T13:15:35.322Z,3.70
2022-11-18T13:18:20.965Z,3.60
2022-11-18T13:20:55.251Z,3.30
2022-11-18T13:23:53.778Z,3.20
2022-11-18T13:26:30.952Z,3.10
2022-11-18T13:29:17.123Z,3.30
2022-11-18T13:32:02.542Z,3.60
2022-11-18T13:34:30.779Z,3.90
2022-11-18T13:36:59.124Z,4.10
2022-11-18T13:39:27.530Z,4.20
2022-11-18T13:42:03.604Z,4.30
2022-11-18T13:44:31.589Z,4.40
2022-11-18T13:47:20.779Z,4.50
2022-11-18T13:49:50.734Z,4.70
2022-11-18T13:52:24.245Z,4.80
2022-11-18T13:54:52.664Z,4.80
2022-11-18T13:57:20.818Z,4.80
2022-11-18T13:59:49.131Z,4.80
2022-11-18T14:02:16.754Z,4.80
2022-11-18T14:04:49.785Z,4.90
2022-11-18T14:07:36.929Z,4.90
2022-11-18T14:10:08.361Z,4.90
2022-11-18T14:12:36.325Z,4.80
2022-11-18T14:15:42.138Z,5.00
2022-11-18T14:18:22.782Z,5.10
2022-11-18T14:20:50.578Z,5.20
2022-11-18T14:23:17.980Z,5.20
2022-11-18T14:25:45.251Z,5.30
2022-11-18T14:28:18.238Z,5.30
2022-11-18T14:31:02.406Z,5.30
2022-11-18T14:33:30.201Z,5.30
2022-11-18T14:36:02.349Z,5.30
2022-11-18T14:38:52.036Z,5.30
2022-11-18T14:41:42.472Z,5.40
2022-11-18T14:44:14.888Z,5.40
2022-11-18T14:46:43.776Z,5.30
2022-11-18T14:49:13.656Z,5.30
2022-11-18T14:51:40.527Z,5.30
2022-11-18T14:54:07.407Z,5.30
2022-11-18T14:56:35.012Z,5.20
2022-11-18T14:59:01.915Z,5.10
2022-11-18T15:01:31.082Z,5.10
2022-11-18T15:03:58.233Z,5.10
2022-11-18T15:06:25.107Z,5.00
2022-11-18T15:08:52.892Z,4.90
2022-11-18T15:11:20.323Z,4.90
2022-11-18T15:13:47.368Z,4.90
2022-11-18T15:16:15.979Z,4.80
2022-11-18T15:18:43.818Z,4.80
2022-11-18T15:21:10.813Z,4.80
2022-11-18T15:23:37.984Z,4.80
2022-11-18T15:26:14.105Z,4.90
2022-11-18T15:28:40.960Z,5.10
2022-11-18T15:31:08.206Z,5.20
2022-11-18T15:33:35.132Z,5.30
2022-11-18T15:36:02.006Z,5.30
2022-11-18T15:38:29.036Z,5.40
2022-11-18T15:40:58.853Z,5.20
2022-11-18T15:43:25.776Z,5.10
2022-11-18T15:45:59.282Z,5.00
2022-11-18T15:48:26.190Z,4.90
2022-11-18T15:50:54.333Z,4.90
2022-11-18T15:53:21.357Z,4.90
2022-11-18T15:55:48.332Z,4.90
2022-11-18T15:58:17.253Z,4.70
2022-11-18T16:00:45.170Z,4.80
2022-11-18T16:03:12.505Z,4.80
2022-11-18T16:05:39.454Z,4.80
2022-11-18T16:08:06.295Z,4.80
2022-11-18T16:10:52.003Z,4.90
2022-11-18T16:13:20.860Z,4.80
2022-11-18T16:15:50.741Z,4.80
2022-11-18T16:18:19.684Z,4.70
2022-11-18T16:20:46.824Z,4.80
2022-11-18T16:23:13.873Z,4.80
2022-11-18T16:25:44.538Z,4.80
2022-11-18T16:28:11.427Z,4.90
2022-11-18T16:30:56.938Z,5.00
2022-11-18T16:33:23.847Z,5.00
2022-11-18T16:35:50.709Z,5.10
2022-11-18T16:38:17.807Z,5.10
2022-11-18T16:40:44.774Z,5.10
2022-11-18T16:43:11.616Z,5.10
2022-11-18T16:45:38.734Z,5.10
2022-11-18T16:48:05.682Z,5.20
2022-11-18T16:50:32.625Z,5.10
2022-11-18T16:52:59.722Z,5.20
2022-11-18T16:55:26.694Z,5.10
2022-11-18T16:57:53.829Z,5.20
2022-11-18T17:00:32.214Z,5.10
2022-11-18T17:03:07.772Z,5.00
2022-11-18T17:05:34.708Z,4.90
2022-11-18T17:08:01.779Z,5.00
2022-11-18T17:10:28.731Z,5.10
2022-11-18T17:12:55.980Z,5.10
2022-11-18T17:15:22.991Z,5.20
2022-11-18T17:17:49.889Z,5.20
2022-11-18T17:20:16.955Z,5.20
2022-11-18T17:22:43.917Z,5.00
2022-11-18T17:25:11.079Z,4.90
2022-11-18T17:27:38.023Z,4.90
2022-11-18T17:30:05.076Z,4.80
2022-11-18T17:32:32.115Z,4.80
2022-11-18T17:34:59.068Z,4.50
2022-11-18T17:37:26.206Z,4.50
2022-11-18T17:39:53.156Z,4.50
2022-11-18T17:42:23.235Z,4.40
2022-11-18T17:44:50.285Z,4.40
2022-11-18T17:47:17.860Z,4.50
2022-11-18T17:49:44.884Z,4.50
2022-11-18T17:52:11.799Z,4.50
2022-11-18T17:54:38.718Z,4.40
2022-11-18T17:57:05.678Z,4.50
2022-11-18T17:59:32.931Z,4.60
2022-11-18T18:02:00.312Z,4.70
2022-11-18T18:04:27.549Z,4.80
2022-11-18T18:06:55.266Z,4.80
2022-11-18T18:09:30.484Z,4.70
2022-11-18T18:11:58.635Z,4.70
2022-11-18T18:14:25.528Z,4.70
2022-11-18T18:16:52.594Z,4.70
2022-11-18T18:19:20.848Z,4.70
2022-11-18T18:21:47.828Z,4.70
2022-11-18T18:24:17.447Z,4.50
2022-11-18T18:26:44.534Z,4.50
2022-11-18T18:29:12.029Z,4.60
2022-11-18T18:31:38.947Z,4.60
2022-11-18T18:34:05.936Z,4.70
2022-11-18T18:36:33.178Z,4.70
2022-11-18T18:39:01.070Z,4.70
2022-11-18T18:41:28.356Z,4.70
2022-11-18T18:43:56.722Z,4.70
2022-11-18T18:46:34.200Z,4.70
2022-11-18T18:49:05.808Z,4.50
2022-11-18T18:51:37.202Z,4.50
2022-11-18T18:54:04.494Z,4.60
2022-11-18T18:56:32.130Z,4.60
2022-11-18T18:58:59.496Z,4.70
2022-11-18T19:01:27.302Z,4.70
2022-11-18T19:03:55.708Z,4.70
2022-11-18T19:09:12.758Z,4.80
2022-11-18T19:11:58.575Z,4.80
2022-11-18T19:14:25.816Z,4.80
2022-11-18T19:16:52.860Z,4.70
2022-11-18T19:19:44.265Z,4.70
2022-11-18T19:22:13.493Z,4.80
2022-11-18T19:27:28.490Z,4.70
2022-11-18T19:29:55.354Z,4.80
2022-11-18T19:32:22.528Z,4.90
2022-11-18T19:34:49.535Z,4.90
2022-11-18T19:37:16.607Z,5.00
2022-11-18T19:39:43.649Z,5.00
2022-11-18T19:42:11.197Z,4.80
2022-11-18T19:44:38.830Z,4.80
2022-11-18T19:47:05.732Z,4.80
2022-11-18T19:49:32.860Z,4.80
2022-11-18T19:51:59.776Z,4.80
2022-11-18T19:54:26.642Z,4.80
2022-11-18T19:56:53.548Z,4.60
2022-11-18T19:59:20.896Z,4.50
2022-11-18T20:01:48.182Z,4.50
2022-11-18T20:04:15.107Z,4.40
2022-11-18T20:06:42.043Z,4.40
2022-11-18T20:09:09.672Z,4.40
2022-11-18T20:11:36.637Z,4.40
2022-11-18T20:14:03.589Z,4.40
2022-11-18T20:16:31.105Z,4.40
2022-11-18T20:19:00.286Z,4.50
2022-11-18T20:21:27.967Z,4.50
2022-11-18T20:23:59.067Z,4.50
2022-11-18T20:26:27.794Z,4.50
2022-11-18T20:28:57.726Z,4.50
2022-11-18T20:31:25.501Z,4.50
2022-11-18T20:33:53.322Z,4.50
2022-11-18T20:36:21.719Z,4.40
2022-11-18T20:38:52.856Z,4.60
2022-11-18T20:41:20.231Z,4.50
2022-11-18T20:43:48.231Z,4.50
2022-11-18T20:46:20.088Z,4.50
2022-11-18T20:48:48.033Z,4.50
2022-11-18T20:51:16.529Z,4.50
2022-11-18T20:53:43.438Z,4.50
2022-11-18T20:56:11.011Z,4.40
2022-11-18T20:58:37.967Z,4.40
2022-11-18T21:01:09.532Z,4.40
2022-11-18T21:03:37.143Z,4.40
2022-11-18T21:06:14.269Z,4.40
2022-11-18T21:08:41.988Z,4.40
2022-11-18T21:11:10.371Z,4.30
2022-11-18T21:13:56.280Z,4.30
2022-11-18T21:16:23.634Z,4.20
2022-11-18T21:18:50.584Z,4.30
2022-11-18T21:21:36.175Z,4.20
2022-11-18T21:24:03.428Z,4.30
2022-11-18T21:26:31.367Z,4.30
2022-11-18T21:28:59.250Z,4.30
2022-11-18T21:31:27.142Z,4.30
2022-11-18T21:33:54.274Z,4.30
2022-11-18T21:36:22.034Z,4.40
2022-11-18T21:38:48.978Z,4.40
2022-11-18T21:41:15.853Z,4.40
2022-11-18T21:44:04.357Z,4.50
2022-11-18T21:46:30.560Z,4.60
2022-11-18T21:49:00.245Z,4.60
2022-11-18T21:51:28.174Z,4.70
2022-11-18T21:53:55.094Z,4.80
2022-11-18T21:56:23.596Z,4.80
2022-11-18T21:58:50.631Z,4.80
2022-11-18T22:01:23.720Z,4.90
2022-11-18T22:03:55.189Z,4.90
2022-11-18T22:06:24.758Z,4.90
2022-11-18T22:08:51.841Z,4.90
2022-11-18T22:11:20.567Z,4.90
2022-11-18T22:13:47.579Z,4.80
2022-11-18T22:16:15.899Z,4.60
2022-11-18T22:18:44.117Z,4.60
2022-11-18T22:21:15.348Z,4.50
2022-11-18T22:23:42.429Z,4.40
2022-11-18T22:26:19.588Z,4.40
2022-11-18T22:28:47.456Z,4.30
2022-11-18T22:31:15.846Z,4.10
2022-11-18T22:33:43.063Z,4.00
2022-11-18T22:36:11.259Z,4.00
2022-11-18T22:38:38.394Z,4.10
2022-11-18T22:41:10.198Z,4.00
2022-11-18T22:43:37.208Z,4.00
2022-11-18T22:46:06.751Z,4.00
2022-11-18T22:48:34.410Z,3.80
2022-11-18T22:51:05.463Z,3.90
2022-11-18T22:53:32.928Z,3.90
2022-11-18T22:56:04.282Z,4.00
2022-11-18T22:58:31.547Z,4.00
2022-11-18T23:01:05.683Z,4.00
2022-11-18T23:03:32.841Z,4.10
2022-11-18T23:05:59.851Z,4.10
2022-11-18T23:08:27.852Z,3.80
2022-11-18T23:11:01.047Z,3.80
2022-11-18T23:13:46.674Z,3.80
2022-11-18T23:16:13.711Z,4.00
2022-11-18T23:18:40.680Z,3.90
2022-11-18T23:21:07.873Z,4.00
2022-11-18T23:23:34.729Z,4.20
2022-11-18T23:26:08.981Z,4.30
2022-11-18T23:28:37.740Z,4.30
2022-11-18T23:31:09.155Z,4.40
2022-11-18T23:33:36.249Z,4.50
2022-11-18T23:36:04.021Z,4.50
2022-11-18T23:38:31.771Z,4.50
2022-11-18T23:40:59.768Z,4.50
2022-11-18T23:43:27.102Z,4.50
2022-11-18T23:45:54.443Z,4.50
2022-11-18T23:48:22.408Z,4.40
2022-11-18T23:50:56.479Z,4.40
2022-11-18T23:53:23.955Z,4.40
2022-11-18T23:55:51.002Z,4.50
2022-11-18T23:58:18.273Z,4.40
